メインページ
METAR-TAF:

METAR-TAF

空港 :

パリチャールズ・ドゴール, フランス

パリ=シャルル・ド・ゴール空港

緯度: 49-01N, 経度: 002-32E, 海抜: 118m

現時点の気象観測

当レポートは21分前の11:30(UTC)に作成
変向風 3kt
気温 21°C
湿度 64%
気圧 1026 hPa
視程10km以上
高度2700ftの雲は散在している
高度3500ftの千切れ雲あり

METAR: LFPG 241130Z VRB03KT 9999 SCT027 BKN035 21/14 Q1026 NOSIG

時間: 13:51 (11:51 UTC)

予報

当レポートは51分前の11:00(UTC)に作成
予報は24日の 12時(UTC)から 25日の 18時(UTC)まで有効
の風 5kt
視程10km以上
高度3000ftの千切れ雲あり
24日の 15時(UTC)から 24日の 17時(UTC)まで徐々に
視程10km以上
1,500メートル以下は雲なし、積乱雲なし
25日の 13時(UTC)から 25日の 16時(UTC)まで一時的に
東/北東の風 10kt、最大20ktの突風を伴う

TAF: LFPG 241100Z 2412/2518 01005KT 9999 BKN030 BECMG 2415/2417 CAVOK TEMPO 2513/2516 06010G20KT TX25/2515Z TN14/2504Z

4,000以上の空港の気象観測と天気予報(METAR報とTAF報)

利用可能な観測所は地図上に黄色い丸と赤い丸で示す。

丸の上にカーソルを重ねると観測所名を参照できる。

次にクリックすると気象観測と天気予報を参照できる。

マップの切り替え:黒色「×」印の緑ボタンをクリックして拡大、「-」印の緑ボタンをクリックして縮小、緑色の三角印をクリックして隣りの地図に切り替え


METAR-TAF: